Terminal Aerodrome Forecast
Issued by NWS Cheyenne, WY

Home | Current Version | Previous Version | Text Only | Print | Product List | Glossary On
Versions: 1 2 3 4 5 6 7 8 9 10 11 12 13 14 15 16 17 18 19 20 21 22 23 24 25 26 27 28 29 30 31 32 33 34 35 36 37 38
382
FTUS45 KCYS 230945 AAD
TAFCYS
TAF AMD
KCYS 230945Z 2310/2406 10015KT 2SM -SN BR OVC004
      TEMPO 2310/2314 1/2SM SN FG VV001
     FM231600 12012KT 1/2SM SN FG OVC003
     FM231900 08014G21KT 1/2SM SN FG OVC003
     FM232300 02012KT 2SM -SN BR BKN006 OVC012=

USA.gov is the U.S. government's official web portal to all federal, state and local government web resources and services.